Terminal Aerodrome Forecast
Issued by NWS Wilmington, OH

Home | Current Version | Previous Version | Text Only | Print | Product List | Glossary On
Versions: 1 2 3 4 5 6 7 8 9 10 11 12 13 14 15 16 17 18 19 20 21 22 23 24 25 26 27 28 29 30 31
000
FTUS41 KILN 290207 AAB
TAFCVG
TAF AMD
KCVG 290207Z 2902/3006 24010KT P6SM VCTS OVC045CB
      TEMPO 2902/2904 2SM -TSRA BR OVC028CB
     FM290400 24008KT P6SM BKN060
     FM290600 25005KT P6SM SCT250
     FM291300 21008KT P6SM SCT250
     FM291700 24011G18KT P6SM BKN250=

USA.gov is the U.S. government's official web portal to all federal, state and local government web resources and services.